Townville, SC

10:04 AM EDT on October 01, 2014 (GMT -0400)
Anderson Regional | Change Station
CLOSE
Current Station
Airport
Location: Anderson,
Elevation: 781 ft
Nearby Weather Stations

Elev 781 ft 34.50 °N, 82.71 °W | Updated 6 hours ago

Clear
Clear
77 °F
Feels Like 77 °F
N
1
Wind Variable Wind from South
Gusts mph

Today
High -- | Low -- °F
--% Chance of Precip.
Yesterday
High -- | Low -- °F
Precip. -- in
7:26 AM 7:15 PM
Waxing Crescent, 48% visible
Pressure 29.95 in
Visibility 0.8 miles
Clouds Few 200 ft
Mostly Cloudy 5500 ft
Dew Point 59 °F
Humidity 53%
Rainfall 0.00 in
Snow Depth Not available.
UV 0 out of 12
Pollen 5.10 out of 12
Ozone Good
PM2.5 Good
Flu Activity Not available.
METAR KAND 300804Z AUTO 00000KT 3/4SM BR FEW002 BKN055 16/15 A2995 RMK AO2 T01560150

More Conditions Fewer Conditions

Pressure 29.95 in
Visibility 0.8 miles
Clouds Few 200 ft
Mostly Cloudy 5500 ft
Dew Point 59 °F
Humidity 53%
Rainfall 0.00 in
Snow Depth Not available.
UV 0 out of 12
Pollen 5.10 out of 12
Ozone Good
PM2.5 Good
Flu Activity Not available.
METAR KAND 300804Z AUTO 00000KT 3/4SM BR FEW002 BKN055 16/15 A2995 RMK AO2 T01560150

More Conditions Fewer Conditions

10-Day Weather Forecast

Almanac

Astronomy

Oct. 01, 2014 Rise Set
Actual Time 7:26 AM EDT 7:15 PM EDT
Civil Twilight 7:00 AM EDT 7:40 PM EDT
Nautical Twilight 6:31 AM EDT 8:09 PM EDT
Astronomical Twilight 6:02 AM EDT 8:39 PM EDT
Moon 2:15 PM EDT No Moon Set
Length of Visible Light 12h 39m
Length of Day
11h 49m
Tomorrow will be 2m 8s shorter.
Waxing Crescent, 48% of the Moon is Illuminated
Today
Waxing Crescent
Oct 1
First Quarter
Oct 8
Full
Oct 15
Last Quarter
Oct 23
New

Today's Extremes

State Highs State Lows

Community

WunderPhotos

Upload Photos

1,757,944 photos uploaded!

Nearby

Air Quality

  Air Quality AQ Index Pollutant
Yesterday Good
OZONE
Yesterday Good
PM2.5
Current Good
PM2.5
Current Good
OZONE

Snow Depth

Station Depth Elevation
No new snow has been reported.

Earthquake Activity

City Distance Mag. Time & Date
No recent earthquake activity has been reported nearby.
Minimum magnitude displayed is 2.5.

Coastal Water Temperatures

Place Temperature
No Stations Reporting

Nearby Weather Stations